Time;durP1;ratioP1;P1;durP2;ratioP2;P2;SDS_P1;SDS_P2;PMS_P1;PMS_P2;Temp;Humidity;BMP_temperature;BMP_pressure;BME280_temperature;BME280_humidity;BME280_pressure;Samples;Min_cycle;Max_cycle;Signal;HPM_P1;HPM_P2
2021/04/28 00:00:42;;;;;;;2.28;2.08;;;23.50;26.80;;;;;;5050547;28;20543;-41
2021/04/28 00:03:08;;;;;;;2.10;1.90;;;23.40;26.70;;;;;;5050832;28;20198;-40
2021/04/28 00:05:34;;;;;;;2.40;2.10;;;23.40;26.70;;;;;;5063613;28;20673;-39
2021/04/28 00:08:00;;;;;;;2.10;2.00;;;23.40;26.80;;;;;;5050882;28;20334;-40
2021/04/28 00:10:26;;;;;;;2.63;2.03;;;23.40;26.70;;;;;;5050975;28;20198;-43
2021/04/28 00:12:52;;;;;;;2.03;1.92;;;23.40;26.70;;;;;;5050938;28;20198;-43
2021/04/28 00:15:18;;;;;;;2.22;2.00;;;23.40;26.70;;;;;;5050334;28;20225;-41
2021/04/28 00:17:44;;;;;;;1.90;1.80;;;23.40;26.80;;;;;;5060591;28;20201;-44
2021/04/28 00:20:10;;;;;;;2.00;1.80;;;23.40;26.70;;;;;;5060758;28;20206;-45
2021/04/28 00:22:36;;;;;;;3.43;2.17;;;23.40;26.70;;;;;;5051636;28;20677;-47
2021/04/28 00:25:02;;;;;;;1.90;1.80;;;23.40;26.70;;;;;;5066596;28;20221;-44
2021/04/28 00:27:28;;;;;;;3.83;1.90;;;23.40;26.70;;;;;;5050924;28;20312;-41
2021/04/28 00:29:54;;;;;;;2.03;1.88;;;23.40;26.80;;;;;;5057802;28;20210;-41
2021/04/28 00:32:20;;;;;;;2.60;1.80;;;23.40;26.80;;;;;;5057110;28;20645;-45
2021/04/28 00:34:46;;;;;;;2.50;2.30;;;23.40;26.70;;;;;;5053049;28;20221;-40
2021/04/28 00:37:12;;;;;;;2.00;1.90;;;23.40;26.80;;;;;;5060599;28;20251;-40
2021/04/28 00:39:38;;;;;;;2.30;2.10;;;23.40;26.90;;;;;;5054667;28;20654;-42
2021/04/28 00:42:04;;;;;;;2.08;1.92;;;23.40;26.70;;;;;;5064173;28;20296;-40
2021/04/28 00:44:30;;;;;;;1.92;1.83;;;23.40;26.90;;;;;;5056018;28;20229;-42
2021/04/28 00:46:56;;;;;;;2.00;1.83;;;23.40;26.80;;;;;;5050045;28;20214;-43
2021/04/28 00:49:21;;;;;;;2.00;1.90;;;23.40;26.80;;;;;;5048545;28;20194;-43
2021/04/28 00:51:47;;;;;;;2.08;1.90;;;23.40;26.80;;;;;;5051130;28;20255;-41
2021/04/28 00:54:13;;;;;;;2.10;1.90;;;23.40;26.80;;;;;;5050897;28;20242;-43
2021/04/28 00:56:39;;;;;;;2.63;1.95;;;23.40;26.90;;;;;;5050684;28;20198;-42
2021/04/28 00:59:05;;;;;;;2.05;1.88;;;23.40;26.80;;;;;;5047906;28;20204;-39
2021/04/28 01:01:31;;;;;;;2.67;1.88;;;23.40;26.70;;;;;;5047923;28;20515;-45
2021/04/28 01:03:57;;;;;;;2.00;1.90;;;23.40;26.80;;;;;;5061489;28;20221;-40
2021/04/28 01:06:23;;;;;;;2.35;1.90;;;23.40;26.90;;;;;;5056207;28;20298;-41
2021/04/28 01:08:49;;;;;;;2.10;1.90;;;23.40;26.90;;;;;;5049681;28;20276;-44
2021/04/28 01:11:15;;;;;;;2.10;1.90;;;23.40;26.90;;;;;;5049785;28;20205;-43
2021/04/28 01:13:41;;;;;;;1.83;1.70;;;23.40;26.90;;;;;;5066286;28;20602;-40
2021/04/28 01:16:07;;;;;;;2.15;1.88;;;23.40;26.90;;;;;;5056152;28;20204;-43
2021/04/28 01:18:33;;;;;;;1.98;1.77;;;23.40;26.90;;;;;;5067953;28;20220;-39
2021/04/28 01:20:59;;;;;;;1.90;1.80;;;23.40;26.90;;;;;;5060383;28;20208;-45
2021/04/28 01:23:25;;;;;;;1.88;1.77;;;23.40;26.90;;;;;;5050534;28;20202;-39
2021/04/28 01:25:51;;;;;;;1.90;1.80;;;23.40;26.90;;;;;;5049778;28;20611;-41
2021/04/28 01:28:17;;;;;;;1.90;1.80;;;23.40;26.90;;;;;;5049603;28;20297;-44
2021/04/28 01:30:43;;;;;;;2.47;2.00;;;23.40;27.00;;;;;;5051194;28;20204;-39
2021/04/28 01:33:09;;;;;;;1.90;1.80;;;23.40;26.90;;;;;;5048958;28;20558;-40
2021/04/28 01:35:35;;;;;;;1.98;1.80;;;23.40;27.00;;;;;;5053031;28;20228;-43
2021/04/28 01:38:01;;;;;;;2.05;1.90;;;23.40;26.90;;;;;;5061291;28;20213;-42
2021/04/28 01:40:27;;;;;;;1.77;1.67;;;23.40;26.90;;;;;;5049635;28;20545;-41
2021/04/28 01:42:53;;;;;;;1.80;1.70;;;23.40;26.90;;;;;;5055077;28;20252;-41
2021/04/28 01:45:19;;;;;;;2.63;1.73;;;23.40;26.90;;;;;;5052324;28;20697;-41
2021/04/28 01:47:45;;;;;;;2.03;1.83;;;23.40;27.00;;;;;;5056438;28;20225;-40
2021/04/28 01:50:11;;;;;;;2.00;1.80;;;23.40;26.90;;;;;;5061473;28;20287;-40
2021/04/28 01:52:37;;;;;;;1.73;1.63;;;23.40;27.10;;;;;;5057814;28;20562;-41
2021/04/28 01:55:03;;;;;;;1.70;1.60;;;23.40;27.00;;;;;;5070234;28;20223;-40
2021/04/28 01:57:29;;;;;;;1.83;1.73;;;23.40;27.00;;;;;;5042051;28;20206;-43
2021/04/28 01:59:55;;;;;;;2.17;1.70;;;23.40;27.00;;;;;;5051884;28;20194;-42
2021/04/28 02:02:21;;;;;;;2.00;1.73;;;23.40;27.00;;;;;;5048363;28;20208;-44
2021/04/28 02:04:46;;;;;;;1.70;1.60;;;23.40;27.00;;;;;;5049820;28;20294;-40
2021/04/28 02:07:12;;;;;;;1.90;1.80;;;23.40;27.10;;;;;;5057761;28;20228;-43
2021/04/28 02:09:38;;;;;;;2.28;1.63;;;23.40;27.00;;;;;;5048655;28;20647;-43
2021/04/28 02:12:04;;;;;;;1.97;1.80;;;23.40;27.10;;;;;;5050684;28;20202;-40
2021/04/28 02:14:30;;;;;;;2.53;2.33;;;23.40;27.00;;;;;;5049644;28;20677;-41
2021/04/28 02:16:56;;;;;;;1.90;1.80;;;23.40;27.10;;;;;;5049864;28;20202;-43
2021/04/28 02:19:22;;;;;;;1.75;1.65;;;23.40;27.10;;;;;;5050334;28;20201;-40
2021/04/28 02:21:48;;;;;;;1.75;1.65;;;23.40;27.00;;;;;;5057522;28;20204;-41
2021/04/28 02:24:14;;;;;;;1.70;1.55;;;23.40;27.00;;;;;;5052917;28;20413;-40
2021/04/28 02:26:40;;;;;;;2.15;1.95;;;23.40;27.10;;;;;;5036073;28;20198;-44
2021/04/28 02:29:06;;;;;;;2.00;1.90;;;23.40;27.10;;;;;;5048427;28;20213;-44
2021/04/28 02:31:32;;;;;;;2.15;1.80;;;23.40;27.10;;;;;;5050163;28;20217;-44
2021/04/28 02:33:58;;;;;;;1.95;1.85;;;23.40;27.10;;;;;;5049268;28;20279;-45
2021/04/28 02:36:24;;;;;;;1.95;1.85;;;23.40;27.10;;;;;;5053657;28;20197;-45
2021/04/28 02:38:50;;;;;;;1.88;1.67;;;23.40;27.10;;;;;;5056524;28;20630;-46
2021/04/28 02:41:16;;;;;;;1.80;1.70;;;23.40;27.20;;;;;;5052927;28;20216;-46
2021/04/28 02:43:42;;;;;;;1.70;1.60;;;23.40;27.20;;;;;;5055837;28;20237;-45
2021/04/28 02:46:09;;;;;;;1.80;1.70;;;23.40;27.10;;;;;;5053361;28;20617;-41
2021/04/28 02:48:35;;;;;;;1.95;1.85;;;23.40;27.10;;;;;;5057351;28;20290;-40
2021/04/28 02:51:01;;;;;;;1.58;1.48;;;23.40;27.20;;;;;;5058378;28;20206;-42
2021/04/28 02:53:27;;;;;;;2.25;1.90;;;23.40;27.10;;;;;;5053314;28;20608;-40
2021/04/28 02:55:53;;;;;;;1.60;1.50;;;23.40;27.10;;;;;;5052302;28;20247;-40
2021/04/28 02:58:19;;;;;;;1.90;1.70;;;23.40;27.20;;;;;;5068222;28;20205;-40
2021/04/28 03:00:45;;;;;;;1.42;1.33;;;23.40;27.70;;;;;;5056086;28;20197;-46
2021/04/28 03:03:11;;;;;;;2.35;1.52;;;23.40;27.20;;;;;;5053970;28;20209;-45
2021/04/28 03:05:37;;;;;;;1.53;1.43;;;23.40;27.20;;;;;;5051926;28;20193;-41
2021/04/28 03:08:03;;;;;;;1.90;1.80;;;23.40;27.40;;;;;;5054776;28;20752;-41
2021/04/28 03:10:29;;;;;;;1.85;1.63;;;23.40;27.90;;;;;;5055964;28;20205;-40
2021/04/28 03:12:55;;;;;;;2.40;1.60;;;23.40;28.00;;;;;;5057450;28;20209;-42
2021/04/28 03:15:21;;;;;;;1.70;1.60;;;23.40;27.70;;;;;;5042136;28;20683;-40
2021/04/28 03:17:47;;;;;;;1.70;1.60;;;23.40;27.60;;;;;;5052114;28;20194;-40
2021/04/28 03:20:13;;;;;;;1.55;1.45;;;23.40;27.50;;;;;;5052244;28;20204;-39
2021/04/28 03:22:39;;;;;;;1.70;1.60;;;23.40;27.40;;;;;;5056923;28;20692;-43
2021/04/28 03:25:05;;;;;;;1.80;1.70;;;23.40;27.40;;;;;;5052112;28;20218;-39
2021/04/28 03:27:31;;;;;;;1.92;1.83;;;23.40;27.40;;;;;;5063026;28;20275;-40
2021/04/28 03:29:56;;;;;;;1.90;1.80;;;23.40;27.50;;;;;;5052587;28;20213;-40
2021/04/28 03:32:23;;;;;;;1.65;1.50;;;23.40;27.40;;;;;;5059863;28;20198;-40
2021/04/28 03:34:49;;;;;;;1.80;1.70;;;23.40;27.40;;;;;;5056998;28;20216;-42
2021/04/28 03:37:14;;;;;;;1.77;1.67;;;23.40;27.30;;;;;;5064473;28;20212;-40
2021/04/28 03:39:41;;;;;;;1.83;1.60;;;23.40;27.30;;;;;;5055979;28;20199;-43
2021/04/28 03:42:07;;;;;;;1.70;1.60;;;23.40;27.40;;;;;;5041996;28;20289;-41
2021/04/28 03:44:33;;;;;;;1.60;1.50;;;23.40;27.30;;;;;;5040917;28;20217;-39
2021/04/28 03:46:59;;;;;;;1.80;1.70;;;23.40;27.40;;;;;;5052035;28;20681;-40
2021/04/28 03:49:25;;;;;;;1.77;1.67;;;23.40;27.50;;;;;;5052441;28;20194;-39
2021/04/28 03:51:51;;;;;;;1.77;1.67;;;23.40;27.30;;;;;;5064797;28;20197;-40
2021/04/28 03:54:17;;;;;;;1.75;1.65;;;23.40;27.30;;;;;;5061142;28;20209;-39
2021/04/28 03:56:43;;;;;;;1.85;1.63;;;23.40;27.50;;;;;;5050156;28;20198;-41
2021/04/28 03:59:09;;;;;;;1.93;1.67;;;23.40;27.50;;;;;;5049287;28;20688;-40
2021/04/28 04:01:35;;;;;;;1.58;1.48;;;23.40;27.30;;;;;;5064024;28;20228;-39
2021/04/28 04:04:01;;;;;;;1.58;1.45;;;23.40;27.30;;;;;;5050363;28;20218;-39
2021/04/28 04:06:27;;;;;;;1.90;1.80;;;23.40;27.30;;;;;;5051263;28;20213;-40
2021/04/28 04:08:53;;;;;;;2.10;1.73;;;23.40;27.30;;;;;;5058072;28;20247;-40
2021/04/28 04:11:19;;;;;;;2.20;1.65;;;23.40;27.40;;;;;;5052533;28;20210;-40
2021/04/28 04:13:45;;;;;;;1.77;1.67;;;23.40;27.40;;;;;;5052750;28;20225;-39
2021/04/28 04:16:11;;;;;;;1.67;1.58;;;23.40;27.30;;;;;;5052739;28;20220;-40
2021/04/28 04:18:37;;;;;;;1.60;1.50;;;23.40;27.30;;;;;;5069300;28;20213;-39
2021/04/28 04:21:03;;;;;;;1.95;1.50;;;23.40;27.30;;;;;;5051556;28;20578;-40
2021/04/28 04:23:29;;;;;;;1.80;1.70;;;23.40;27.30;;;;;;5061763;28;20221;-39
2021/04/28 04:25:55;;;;;;;1.67;1.58;;;23.40;27.30;;;;;;5051653;28;20558;-40
2021/04/28 04:28:21;;;;;;;1.80;1.70;;;23.40;27.30;;;;;;5042966;28;20279;-40
2021/04/28 04:30:49;;;;;;;1.92;1.52;;;23.40;27.30;;;;;;5062408;28;20194;-40
2021/04/28 04:33:16;;;;;;;1.90;1.80;;;23.40;27.30;;;;;;5051070;28;20225;-39
2021/04/28 04:35:42;;;;;;;1.73;1.63;;;23.40;27.30;;;;;;5050944;28;20201;-39
2021/04/28 04:38:08;;;;;;;1.92;1.75;;;23.40;27.30;;;;;;5050049;28;20201;-41
2021/04/28 04:40:34;;;;;;;2.38;1.50;;;23.40;27.40;;;;;;5051486;28;20205;-40
2021/04/28 04:43:00;;;;;;;2.05;1.85;;;23.40;27.30;;;;;;5051666;28;20230;-46
2021/04/28 04:45:26;;;;;;;1.85;1.75;;;23.40;27.30;;;;;;5050614;28;20228;-39
2021/04/28 04:47:52;;;;;;;1.80;1.70;;;23.40;27.30;;;;;;5053848;28;20228;-40
2021/04/28 04:50:18;;;;;;;2.00;1.90;;;23.40;27.40;;;;;;5040116;28;20672;-41
2021/04/28 04:52:44;;;;;;;1.65;1.55;;;23.40;27.30;;;;;;5050152;28;20205;-41
2021/04/28 04:55:10;;;;;;;1.70;1.60;;;23.40;27.30;;;;;;5059739;28;20560;-41
2021/04/28 04:57:36;;;;;;;1.80;1.70;;;23.40;27.30;;;;;;5050281;28;20210;-40
2021/04/28 05:00:02;;;;;;;2.38;1.88;;;23.40;27.30;;;;;;5050326;28;20198;-38
2021/04/28 05:02:28;;;;;;;2.15;1.60;;;23.40;27.30;;;;;;5054915;28;20347;-45
2021/04/28 05:04:54;;;;;;;1.80;1.57;;;23.40;27.30;;;;;;5050025;28;20218;-40
2021/04/28 05:07:20;;;;;;;2.05;1.83;;;23.40;27.40;;;;;;5049142;28;20238;-39
2021/04/28 05:09:46;;;;;;;1.77;1.60;;;23.40;27.40;;;;;;5063059;28;20263;-39
2021/04/28 05:12:12;;;;;;;1.63;1.52;;;23.40;27.30;;;;;;5060967;28;20604;-42
2021/04/28 05:14:38;;;;;;;2.72;1.70;;;23.40;27.40;;;;;;5050141;28;20228;-48
2021/04/28 05:17:04;;;;;;;1.57;1.47;;;23.40;27.40;;;;;;5049687;28;20209;-40
2021/04/28 05:19:30;;;;;;;1.80;1.70;;;23.40;27.30;;;;;;5051683;28;20560;-43
2021/04/28 05:21:56;;;;;;;2.33;1.60;;;23.40;27.30;;;;;;5047264;28;20316;-42
2021/04/28 05:24:22;;;;;;;1.80;1.70;;;23.40;27.30;;;;;;5050432;28;20214;-41
2021/04/28 05:26:48;;;;;;;2.20;2.00;;;23.40;27.50;;;;;;5052295;28;20198;-49
2021/04/28 05:29:14;;;;;;;1.73;1.63;;;23.40;27.30;;;;;;5064009;28;20204;-45
2021/04/28 05:31:40;;;;;;;1.85;1.50;;;23.40;27.40;;;;;;5054277;28;20533;-45
2021/04/28 05:34:06;;;;;;;1.83;1.73;;;23.40;27.50;;;;;;5070823;28;20223;-41
2021/04/28 05:36:32;;;;;;;1.60;1.50;;;23.40;27.20;;;;;;5053361;28;20255;-41
2021/04/28 05:38:59;;;;;;;1.70;1.60;;;23.40;27.30;;;;;;5049148;28;20210;-40
2021/04/28 05:41:26;;;;;;;1.88;1.75;;;23.40;27.30;;;;;;5049448;28;20194;-43
2021/04/28 05:43:52;;;;;;;2.03;1.80;;;23.40;27.30;;;;;;5049305;28;20681;-39
2021/04/28 05:46:18;;;;;;;1.93;1.77;;;23.40;27.20;;;;;;5050935;28;20254;-40
2021/04/28 05:48:44;;;;;;;2.25;2.05;;;23.40;27.30;;;;;;5084133;22;20220;-48
2021/04/28 05:51:10;;;;;;;1.90;1.80;;;23.40;27.20;;;;;;5069874;28;20590;-50
2021/04/28 05:53:36;;;;;;;1.67;1.58;;;23.40;27.20;;;;;;5070943;28;20223;-50
2021/04/28 05:56:02;;;;;;;2.30;1.63;;;23.40;27.30;;;;;;5069568;28;20212;-50
2021/04/28 05:58:27;;;;;;;1.63;1.50;;;23.40;27.30;;;;;;5064036;28;20228;-49
2021/04/28 06:00:53;;;;;;;1.80;1.70;;;23.40;27.30;;;;;;5068201;28;20204;-49
2021/04/28 06:03:19;;;;;;;2.63;1.90;;;23.40;27.30;;;;;;5069028;28;20217;-49
2021/04/28 06:05:45;;;;;;;1.80;1.70;;;23.40;27.30;;;;;;5070361;28;20201;-49
2021/04/28 06:08:13;;;;;;;1.80;1.47;;;23.40;27.30;;;;;;5067577;28;20604;-49
2021/04/28 06:10:39;;;;;;;2.72;1.95;;;23.40;27.30;;;;;;5070224;28;20204;-51
2021/04/28 06:13:05;;;;;;;1.90;1.80;;;23.40;27.30;;;;;;5069889;28;20221;-47
2021/04/28 06:15:31;;;;;;;2.20;1.70;;;23.40;27.20;;;;;;5074527;28;20247;-49
2021/04/28 06:17:57;;;;;;;1.90;1.70;;;23.50;27.30;;;;;;5072736;28;20201;-51
2021/04/28 06:20:23;;;;;;;1.80;1.70;;;23.50;27.40;;;;;;5074055;28;20658;-48
2021/04/28 06:22:49;;;;;;;2.38;1.80;;;23.50;27.40;;;;;;5073030;28;20225;-50
2021/04/28 06:25:15;;;;;;;1.88;1.60;;;23.40;27.30;;;;;;5074770;28;20208;-48
2021/04/28 06:27:41;;;;;;;1.57;1.47;;;23.50;27.40;;;;;;5073158;28;20510;-50
2021/04/28 06:30:07;;;;;;;1.98;1.58;;;23.40;27.30;;;;;;5072377;28;20204;-50
2021/04/28 06:32:32;;;;;;;1.70;1.60;;;23.50;27.30;;;;;;5072528;28;20221;-50
2021/04/28 06:34:58;;;;;;;1.80;1.60;;;23.40;27.30;;;;;;5073981;28;20569;-47
2021/04/28 06:37:24;;;;;;;1.63;1.52;;;23.50;27.30;;;;;;5072116;28;20201;-49
2021/04/28 06:39:50;;;;;;;1.77;1.65;;;23.50;27.30;;;;;;5072259;28;20646;-50
2021/04/28 06:42:16;;;;;;;1.85;1.75;;;23.50;27.40;;;;;;5073469;28;20216;-50
2021/04/28 06:44:42;;;;;;;1.95;1.75;;;23.50;27.30;;;;;;5073020;28;20223;-50
2021/04/28 06:47:08;;;;;;;2.13;1.67;;;23.50;27.40;;;;;;5069539;28;20221;-47
2021/04/28 06:49:34;;;;;;;2.85;1.60;;;23.40;27.30;;;;;;5070311;28;20193;-49
2021/04/28 06:52:00;;;;;;;1.77;1.67;;;23.50;27.30;;;;;;5069658;28;21211;-47
2021/04/28 06:54:26;;;;;;;3.22;1.60;;;23.50;27.30;;;;;;5073834;28;20224;-47
2021/04/28 06:56:52;;;;;;;2.08;1.65;;;23.50;27.30;;;;;;5071893;28;20616;-51
2021/04/28 06:59:19;;;;;;;2.00;1.80;;;23.50;28.40;;;;;;5072560;28;20197;-49
2021/04/28 07:01:46;;;;;;;1.50;1.40;;;23.50;28.40;;;;;;5072880;28;20207;-50
2021/04/28 07:04:11;;;;;;;2.50;1.65;;;23.50;28.90;;;;;;5071685;28;20220;-50
2021/04/28 07:06:37;;;;;;;1.70;1.60;;;23.50;28.40;;;;;;5072284;28;20208;-50
2021/04/28 07:09:04;;;;;;;1.90;1.80;;;23.50;28.40;;;;;;5068454;28;20240;-49
2021/04/28 07:11:30;;;;;;;2.58;1.80;;;23.50;28.10;;;;;;5069728;28;20204;-47
2021/04/28 07:13:56;;;;;;;1.60;1.50;;;23.50;28.40;;;;;;5072039;28;20767;-52
2021/04/28 07:16:22;;;;;;;8.67;2.13;;;23.60;29.00;;;;;;5071406;28;20205;-51
2021/04/28 07:18:48;;;;;;;4.03;1.70;;;23.70;29.50;;;;;;5070572;28;20786;-52
2021/04/28 07:21:14;;;;;;;3.85;1.90;;;23.70;29.80;;;;;;5072281;28;20208;-50
2021/04/28 07:23:40;;;;;;;2.60;1.52;;;23.70;29.10;;;;;;5070189;28;20229;-50
2021/04/28 07:26:08;;;;;;;1.92;1.73;;;23.70;29.90;;;;;;5073485;28;20220;-56
2021/04/28 07:28:34;;;;;;;2.58;1.70;;;23.70;28.80;;;;;;5062145;28;20553;-54
2021/04/28 07:31:00;;;;;;;4.78;2.38;;;23.60;29.40;;;;;;5072466;28;20266;-51
2021/04/28 07:33:26;;;;;;;4.80;2.55;;;23.60;30.00;;;;;;5071493;28;20283;-50
2021/04/28 07:35:52;;;;;;;4.78;2.47;;;23.60;30.20;;;;;;5072519;28;20554;-51
2021/04/28 07:38:18;;;;;;;6.57;3.03;;;23.60;32.30;;;;;;5071524;28;20204;-47
2021/04/28 07:40:44;;;;;;;4.70;2.90;;;23.50;33.60;;;;;;5072086;28;20649;-48
2021/04/28 07:43:10;;;;;;;8.45;3.78;;;23.50;35.40;;;;;;5071757;28;20224;-50
2021/04/28 07:45:36;;;;;;;6.43;3.25;;;23.40;34.80;;;;;;5072547;28;20599;-49
2021/04/28 07:48:01;;;;;;;5.97;2.83;;;23.40;34.60;;;;;;5070311;28;20229;-51
2021/04/28 07:50:27;;;;;;;3.95;2.78;;;23.40;34.40;;;;;;5071650;28;20212;-50
2021/04/28 07:52:53;;;;;;;9.63;6.60;;;23.30;32.60;;;;;;5071718;28;20224;-47
2021/04/28 07:55:19;;;;;;;13.87;8.57;;;22.70;29.40;;;;;;5069323;28;20200;-52
2021/04/28 07:57:45;;;;;;;11.83;7.00;;;21.30;28.30;;;;;;5071918;28;20200;-52
2021/04/28 08:00:11;;;;;;;8.67;7.20;;;21.50;30.30;;;;;;5064236;28;20566;-50
2021/04/28 08:02:37;;;;;;;14.90;9.60;;;21.20;28.00;;;;;;5071579;28;20232;-53
2021/04/28 08:05:03;;;;;;;12.57;8.33;;;19.80;25.90;;;;;;5071536;28;20672;-50
2021/04/28 08:07:29;;;;;;;11.83;7.47;;;20.30;27.00;;;;;;5069894;28;20214;-50
2021/04/28 08:09:55;;;;;;;10.27;6.50;;;19.30;28.10;;;;;;5071919;28;20196;-51
2021/04/28 08:12:21;;;;;;;10.20;5.20;;;20.60;28.80;;;;;;5071356;28;21612;-53
2021/04/28 08:14:47;;;;;;;7.40;4.53;;;21.50;28.20;;;;;;5071113;28;20192;-51
2021/04/28 08:17:13;;;;;;;5.70;4.00;;;22.00;27.60;;;;;;5070785;28;20221;-48
2021/04/28 08:19:39;;;;;;;4.33;3.70;;;22.40;27.60;;;;;;5070338;28;20213;-50
2021/04/28 08:22:05;;;;;;;3.93;3.53;;;22.60;27.80;;;;;;5070356;28;20831;-47
2021/04/28 08:24:31;;;;;;;6.17;3.23;;;22.80;27.90;;;;;;5066231;28;20214;-46
2021/04/28 08:26:57;;;;;;;6.17;3.47;;;22.90;28.30;;;;;;5070689;28;20674;-48
2021/04/28 08:29:23;;;;;;;4.33;3.13;;;23.10;28.10;;;;;;5067932;28;20207;-50
2021/04/28 08:31:49;;;;;;;7.17;3.70;;;23.10;28.10;;;;;;5068971;28;20200;-49
2021/04/28 08:34:15;;;;;;;4.23;3.20;;;23.20;28.40;;;;;;5069581;28;20209;-50
2021/04/28 08:36:41;;;;;;;5.37;3.03;;;23.30;28.60;;;;;;5067867;28;20200;-49
2021/04/28 08:39:08;;;;;;;6.67;3.17;;;23.30;28.60;;;;;;5071736;28;20695;-49
2021/04/28 08:41:34;;;;;;;4.30;2.87;;;23.30;28.60;;;;;;5065566;28;20211;-51
2021/04/28 08:44:02;;;;;;;3.57;2.77;;;23.40;29.10;;;;;;5070113;28;20225;-54
2021/04/28 08:46:28;;;;;;;4.37;2.60;;;23.40;29.20;;;;;;5072161;28;20204;-50
2021/04/28 08:48:54;;;;;;;2.93;2.47;;;23.40;29.50;;;;;;5069899;28;20290;-50
2021/04/28 08:51:20;;;;;;;4.13;2.17;;;23.40;29.60;;;;;;5069491;28;20201;-51
2021/04/28 08:53:46;;;;;;;4.57;2.67;;;23.40;29.70;;;;;;5070209;28;20238;-55
2021/04/28 08:56:12;;;;;;;3.50;2.97;;;23.40;29.70;;;;;;5070565;28;20201;-50
2021/04/28 08:58:38;;;;;;;4.63;3.00;;;23.40;29.60;;;;;;5070262;28;20507;-53
2021/04/28 09:01:04;;;;;;;4.73;2.70;;;23.40;29.50;;;;;;5052289;28;20217;-50
2021/04/28 09:03:30;;;;;;;5.80;4.20;;;23.40;29.30;;;;;;5067556;28;20221;-48
2021/04/28 09:05:56;;;;;;;4.83;4.10;;;23.40;28.70;;;;;;5067730;28;20661;-49
2021/04/28 09:08:22;;;;;;;8.23;4.70;;;23.30;28.20;;;;;;5068917;28;20251;-51
2021/04/28 09:10:48;;;;;;;4.10;3.20;;;23.30;28.20;;;;;;5071487;28;20211;-48
2021/04/28 09:13:14;;;;;;;6.07;3.23;;;23.30;28.20;;;;;;5072028;28;20232;-49
2021/04/28 09:15:40;;;;;;;4.07;3.67;;;23.30;28.50;;;;;;5071580;28;20282;-51
2021/04/28 09:18:07;;;;;;;4.47;3.13;;;23.30;28.60;;;;;;5055474;28;20233;-54
2021/04/28 09:20:34;;;;;;;4.50;3.07;;;23.40;28.80;;;;;;5071607;28;20274;-52
2021/04/28 09:23:00;;;;;;;3.73;3.00;;;23.40;28.90;;;;;;5071792;28;20649;-51
2021/04/28 09:25:26;;;;;;;4.43;2.70;;;23.40;29.00;;;;;;5071401;28;20209;-51
2021/04/28 09:27:52;;;;;;;4.93;3.00;;;23.40;29.00;;;;;;5070502;28;20248;-52
2021/04/28 09:30:18;;;;;;;4.73;3.00;;;23.40;29.00;;;;;;5070722;28;20205;-48
2021/04/28 09:32:46;;;;;;;6.57;3.03;;;23.40;29.00;;;;;;5071304;28;20252;-49
2021/04/28 09:35:13;;;;;;;4.00;3.00;;;23.40;29.00;;;;;;5071283;28;20212;-53
2021/04/28 09:37:39;;;;;;;4.18;2.63;;;23.50;29.00;;;;;;5070440;28;20474;-50
2021/04/28 09:40:05;;;;;;;3.90;2.40;;;23.40;29.00;;;;;;5069411;28;20209;-50
2021/04/28 09:42:31;;;;;;;4.20;2.83;;;23.50;28.90;;;;;;5070858;28;20220;-50
2021/04/28 09:44:57;;;;;;;4.65;2.72;;;23.50;29.10;;;;;;5071181;28;20208;-49
2021/04/28 09:47:23;;;;;;;3.58;2.70;;;23.40;29.00;;;;;;5070493;28;20362;-48
2021/04/28 09:49:49;;;;;;;4.10;2.88;;;23.50;29.10;;;;;;5063092;28;20944;-48
2021/04/28 09:52:14;;;;;;;4.27;3.00;;;23.50;29.20;;;;;;5068606;28;20229;-48
2021/04/28 09:54:40;;;;;;;5.57;3.00;;;23.50;29.20;;;;;;5066354;28;20560;-46
2021/04/28 09:57:06;;;;;;;5.72;3.05;;;23.50;29.30;;;;;;5067070;28;20208;-51
2021/04/28 09:59:33;;;;;;;3.60;2.45;;;23.60;29.40;;;;;;5069531;28;20236;-49
2021/04/28 10:01:59;;;;;;;3.42;2.30;;;23.70;30.70;;;;;;5070480;28;20229;-60
2021/04/28 10:04:24;;;;;;;4.38;2.50;;;23.70;30.10;;;;;;5064943;28;20204;-53
2021/04/28 10:06:50;;;;;;;4.43;2.45;;;23.70;30.50;;;;;;5065943;28;20247;-46
2021/04/28 10:09:16;;;;;;;3.20;2.67;;;23.70;30.90;;;;;;5069782;28;20719;-46
2021/04/28 10:11:42;;;;;;;4.28;2.58;;;23.80;31.10;;;;;;5066804;28;20423;-46
2021/04/28 10:14:08;;;;;;;4.45;2.80;;;23.70;30.70;;;;;;5067798;28;20264;-51
2021/04/28 10:16:34;;;;;;;4.93;2.67;;;23.70;31.40;;;;;;5069690;28;20259;-52
2021/04/28 10:19:00;;;;;;;5.38;3.08;;;23.80;32.20;;;;;;5068679;28;20207;-49
2021/04/28 10:21:26;;;;;;;10.38;3.13;;;23.70;31.10;;;;;;5069453;28;20217;-55
2021/04/28 10:23:54;;;;;;;3.22;2.60;;;23.70;30.60;;;;;;5068641;28;20220;-53
2021/04/28 10:26:20;;;;;;;3.85;3.05;;;23.70;30.60;;;;;;5068784;28;20216;-48
2021/04/28 10:28:46;;;;;;;3.65;2.85;;;23.60;30.40;;;;;;5069583;28;20781;-50
2021/04/28 10:31:12;;;;;;;3.42;2.92;;;23.60;30.00;;;;;;5055350;28;20272;-55
2021/04/28 10:33:38;;;;;;;4.78;2.58;;;23.70;31.10;;;;;;5067782;28;20197;-55
2021/04/28 10:36:04;;;;;;;4.60;3.05;;;23.70;31.00;;;;;;5068569;28;20496;-52
2021/04/28 10:38:30;;;;;;;5.38;3.40;;;23.60;31.00;;;;;;5069055;28;20235;-52
2021/04/28 10:40:56;;;;;;;4.35;3.78;;;23.70;30.00;;;;;;5068231;28;20201;-51
2021/04/28 10:43:22;;;;;;;4.28;3.08;;;23.70;29.40;;;;;;5069128;28;20193;-49
2021/04/28 10:45:48;;;;;;;5.88;3.72;;;23.70;29.20;;;;;;5067763;28;20251;-56
2021/04/28 10:48:17;;;;;;;5.30;3.63;;;23.60;29.20;;;;;;5062745;28;20244;-58
2021/04/28 10:50:45;;;;;;;3.23;2.93;;;23.60;29.10;;;;;;5068448;28;20201;-59
2021/04/28 10:53:11;;;;;;;5.00;3.00;;;23.60;28.80;;;;;;5068508;28;20201;-56
2021/04/28 10:55:37;;;;;;;5.68;3.30;;;23.60;28.90;;;;;;5069167;28;20731;-57
2021/04/28 10:58:03;;;;;;;4.50;3.38;;;23.60;28.40;;;;;;5067124;28;20204;-55
2021/04/28 11:00:29;;;;;;;6.20;4.20;;;23.60;28.40;;;;;;5072438;28;20201;-58
2021/04/28 11:02:55;;;;;;;5.75;3.85;;;23.60;28.00;;;;;;5072217;28;20224;-58
2021/04/28 11:05:21;;;;;;;4.53;3.63;;;23.60;27.60;;;;;;5070924;28;20205;-57
2021/04/28 11:07:47;;;;;;;4.95;3.83;;;23.60;27.90;;;;;;5071275;28;20761;-53
2021/04/28 11:10:13;;;;;;;5.25;3.65;;;23.60;27.40;;;;;;5070115;28;20620;-56
2021/04/28 11:12:39;;;;;;;4.38;3.55;;;23.60;25.60;;;;;;5073215;28;20221;-55
2021/04/28 11:15:05;;;;;;;9.05;6.05;;;23.60;27.30;;;;;;5067874;28;20201;-56
2021/04/28 11:17:31;;;;;;;7.10;4.63;;;23.60;27.50;;;;;;5069961;28;20653;-55
2021/04/28 11:19:57;;;;;;;27.50;17.33;;;23.60;27.70;;;;;;5071774;28;20201;-56
2021/04/28 11:22:23;;;;;;;21.30;14.30;;;23.60;27.10;;;;;;5070384;28;20697;-56
2021/04/28 11:24:49;;;;;;;31.63;21.55;;;23.60;26.80;;;;;;5061097;28;20201;-56
2021/04/28 11:27:15;;;;;;;34.75;22.48;;;23.50;26.50;;;;;;5071948;28;20259;-56
2021/04/28 11:29:41;;;;;;;30.95;20.27;;;23.60;26.40;;;;;;5076486;28;20193;-56
2021/04/28 11:32:07;;;;;;;29.98;20.48;;;23.60;26.20;;;;;;5072559;28;20217;-56
2021/04/28 11:34:33;;;;;;;26.63;17.42;;;23.60;26.40;;;;;;5059196;28;20205;-55
2021/04/28 11:36:59;;;;;;;30.45;19.75;;;23.60;26.60;;;;;;5071252;28;20332;-54
2021/04/28 11:39:25;;;;;;;26.93;16.47;;;23.50;26.30;;;;;;5068935;28;20213;-55
2021/04/28 11:41:51;;;;;;;24.70;15.55;;;23.60;26.20;;;;;;5069858;28;20221;-53
2021/04/28 11:44:17;;;;;;;19.70;13.32;;;23.50;26.00;;;;;;5073201;28;20212;-54
2021/04/28 11:49:14;;;;;;;19.98;12.18;;;23.50;25.80;;;;;;5047475;28;20234;-42
2021/04/28 11:51:40;;;;;;;17.75;11.27;;;23.50;25.40;;;;;;5039781;28;20288;-40
2021/04/28 11:54:06;;;;;;;10.85;7.63;;;23.50;25.10;;;;;;5031036;28;20704;-43
2021/04/28 11:56:32;;;;;;;16.17;7.93;;;23.50;25.00;;;;;;5029938;28;20562;-41
2021/04/28 11:59:00;;;;;;;11.90;7.05;;;23.50;25.40;;;;;;5031940;28;20282;-40
2021/04/28 12:01:26;;;;;;;11.48;7.07;;;23.50;25.20;;;;;;5031738;28;20268;-40
2021/04/28 12:03:52;;;;;;;11.77;6.50;;;23.50;25.60;;;;;;5026572;28;20198;-39
2021/04/28 12:06:18;;;;;;;10.25;6.90;;;23.50;25.20;;;;;;5026316;28;20345;-39
2021/04/28 12:08:44;;;;;;;10.60;6.50;;;23.60;25.30;;;;;;5029650;28;20241;-39
2021/04/28 12:11:10;;;;;;;8.27;5.95;;;23.60;25.70;;;;;;5030238;28;20214;-42
2021/04/28 12:13:36;;;;;;;9.05;5.82;;;23.60;25.70;;;;;;5028531;28;20203;-40
2021/04/28 12:16:02;;;;;;;8.25;6.13;;;23.60;25.60;;;;;;5029582;28;20206;-39
2021/04/28 12:18:28;;;;;;;8.68;5.82;;;23.50;25.30;;;;;;5021998;28;20205;-39
2021/04/28 12:20:54;;;;;;;6.00;4.68;;;23.50;25.50;;;;;;5031851;28;20760;-39
2021/04/28 12:23:20;;;;;;;9.13;5.00;;;23.60;25.40;;;;;;5031362;28;20202;-39
2021/04/28 12:25:45;;;;;;;5.72;4.78;;;23.60;25.50;;;;;;5029250;28;20596;-38
2021/04/28 12:28:11;;;;;;;6.55;4.75;;;23.60;25.80;;;;;;5030301;28;20230;-38
2021/04/28 12:30:37;;;;;;;5.25;4.63;;;23.50;25.70;;;;;;5030745;28;20226;-38
2021/04/28 12:33:03;;;;;;;5.97;4.63;;;23.50;25.80;;;;;;5031251;28;20203;-38
2021/04/28 12:35:31;;;;;;;5.77;4.40;;;23.50;25.50;;;;;;5031136;28;20211;-37
2021/04/28 12:37:57;;;;;;;6.22;4.50;;;23.50;25.60;;;;;;5030432;28;20603;-39
2021/04/28 12:40:23;;;;;;;4.88;4.35;;;23.50;25.40;;;;;;5031048;28;20634;-38